Terminal Aerodrome Forecast
Issued by NWS Knoxville/Tri Cities, TN

Home | Current Version | Previous Version | Text Only | Print | Product List | Glossary On
Versions: 1 2 3 4 5 6 7 8 9 10 11 12 13 14 15 16
000
FTUS44 KMRX 312320
TAFTRI
TAF
KTRI 312320Z 0100/0124 VRB04KT P6SM VCSH SCT060 SCT090 BKN250
     FM010200 VRB02KT P6SM FEW060 BKN250
     FM010700 00000KT 5SM BR SCT200
      TEMPO 0108/0112 1SM BR SCT002
     FM011400 00000KT P6SM SCT060 SCT250=

USA.gov is the U.S. government's official web portal to all federal, state and local government web resources and services.